sensor_id;sensor_type;location;lat;lon;timestamp;temperature;humidity
6662;DHT22;3367;48.714;8.994;2022-09-09T00:00:49;14.20;1.00
6662;DHT22;3367;48.714;8.994;2022-09-09T00:03:18;14.20;1.00
6662;DHT22;3367;48.714;8.994;2022-09-09T00:05:53;14.20;1.00
6662;DHT22;3367;48.714;8.994;2022-09-09T00:08:23;14.20;1.00
6662;DHT22;3367;48.714;8.994;2022-09-09T00:10:56;14.20;1.00
6662;DHT22;3367;48.714;8.994;2022-09-09T00:13:30;14.20;1.00
6662;DHT22;3367;48.714;8.994;2022-09-09T00:16:04;14.10;1.00
6662;DHT22;3367;48.714;8.994;2022-09-09T00:18:44;14.10;1.00
6662;DHT22;3367;48.714;8.994;2022-09-09T00:21:14;14.20;1.00
6662;DHT22;3367;48.714;8.994;2022-09-09T00:23:45;14.20;1.00
6662;DHT22;3367;48.714;8.994;2022-09-09T00:26:17;14.20;1.00
6662;DHT22;3367;48.714;8.994;2022-09-09T00:28:50;14.20;1.00
6662;DHT22;3367;48.714;8.994;2022-09-09T00:31:25;14.20;1.00
6662;DHT22;3367;48.714;8.994;2022-09-09T00:33:53;14.30;1.00
6662;DHT22;3367;48.714;8.994;2022-09-09T00:36:24;14.40;1.00
6662;DHT22;3367;48.714;8.994;2022-09-09T00:38:56;14.40;99.90
6662;DHT22;3367;48.714;8.994;2022-09-09T00:41:33;14.40;99.90
6662;DHT22;3367;48.714;8.994;2022-09-09T00:44:13;14.50;99.90
6662;DHT22;3367;48.714;8.994;2022-09-09T00:47:07;14.50;99.90
6662;DHT22;3367;48.714;8.994;2022-09-09T00:49:43;14.50;99.90
6662;DHT22;3367;48.714;8.994;2022-09-09T00:52:23;14.50;99.90
6662;DHT22;3367;48.714;8.994;2022-09-09T00:55:00;14.50;99.90
6662;DHT22;3367;48.714;8.994;2022-09-09T00:57:31;14.50;1.00
6662;DHT22;3367;48.714;8.994;2022-09-09T01:00:18;14.50;99.90
6662;DHT22;3367;48.714;8.994;2022-09-09T01:02:53;14.60;1.00
6662;DHT22;3367;48.714;8.994;2022-09-09T01:05:27;14.60;99.90
6662;DHT22;3367;48.714;8.994;2022-09-09T01:07:58;14.60;99.90
6662;DHT22;3367;48.714;8.994;2022-09-09T01:10:37;14.60;99.90
6662;DHT22;3367;48.714;8.994;2022-09-09T01:13:13;14.60;1.00
6662;DHT22;3367;48.714;8.994;2022-09-09T01:15:44;14.60;1.00
6662;DHT22;3367;48.714;8.994;2022-09-09T01:18:17;14.60;1.00
6662;DHT22;3367;48.714;8.994;2022-09-09T01:20:51;14.60;99.90
6662;DHT22;3367;48.714;8.994;2022-09-09T01:23:39;14.60;1.00
6662;DHT22;3367;48.714;8.994;2022-09-09T01:26:25;14.60;99.90
6662;DHT22;3367;48.714;8.994;2022-09-09T01:28:53;14.60;99.90
6662;DHT22;3367;48.714;8.994;2022-09-09T01:31:23;14.70;99.90
6662;DHT22;3367;48.714;8.994;2022-09-09T01:33:51;14.60;99.90
6662;DHT22;3367;48.714;8.994;2022-09-09T01:36:24;14.60;99.90
6662;DHT22;3367;48.714;8.994;2022-09-09T01:38:52;14.70;99.90
6662;DHT22;3367;48.714;8.994;2022-09-09T01:41:19;14.70;99.90
6662;DHT22;3367;48.714;8.994;2022-09-09T01:43:47;14.70;99.90
6662;DHT22;3367;48.714;8.994;2022-09-09T01:46:14;14.60;99.90
6662;DHT22;3367;48.714;8.994;2022-09-09T01:48:43;14.60;99.90
6662;DHT22;3367;48.714;8.994;2022-09-09T01:51:10;14.50;99.90
6662;DHT22;3367;48.714;8.994;2022-09-09T01:53:38;14.50;1.00
6662;DHT22;3367;48.714;8.994;2022-09-09T01:56:15;14.40;1.00
6662;DHT22;3367;48.714;8.994;2022-09-09T01:58:57;14.40;99.90
6662;DHT22;3367;48.714;8.994;2022-09-09T02:01:36;14.20;1.00
6662;DHT22;3367;48.714;8.994;2022-09-09T02:04:17;14.30;1.00
6662;DHT22;3367;48.714;8.994;2022-09-09T02:06:48;14.20;1.00
6662;DHT22;3367;48.714;8.994;2022-09-09T02:09:17;14.20;1.00
6662;DHT22;3367;48.714;8.994;2022-09-09T02:11:47;14.10;1.00
6662;DHT22;3367;48.714;8.994;2022-09-09T02:14:23;14.10;1.00
6662;DHT22;3367;48.714;8.994;2022-09-09T02:16:55;14.00;1.00
6662;DHT22;3367;48.714;8.994;2022-09-09T02:19:26;14.00;1.00
6662;DHT22;3367;48.714;8.994;2022-09-09T02:21:57;13.90;1.00
6662;DHT22;3367;48.714;8.994;2022-09-09T02:24:26;13.90;1.00
6662;DHT22;3367;48.714;8.994;2022-09-09T02:26:55;13.90;1.00
6662;DHT22;3367;48.714;8.994;2022-09-09T02:29:26;13.90;1.00
6662;DHT22;3367;48.714;8.994;2022-09-09T02:31:57;13.80;1.00
6662;DHT22;3367;48.714;8.994;2022-09-09T02:34:25;13.80;1.00
6662;DHT22;3367;48.714;8.994;2022-09-09T02:36:55;13.80;1.00
6662;DHT22;3367;48.714;8.994;2022-09-09T02:39:23;13.70;1.00
6662;DHT22;3367;48.714;8.994;2022-09-09T02:41:50;13.70;1.00
6662;DHT22;3367;48.714;8.994;2022-09-09T02:44:18;13.60;23.40
6662;DHT22;3367;48.714;8.994;2022-09-09T02:47:04;13.50;35.30
6662;DHT22;3367;48.714;8.994;2022-09-09T02:49:43;13.60;7.40
6662;DHT22;3367;48.714;8.994;2022-09-09T02:52:14;13.60;1.00
6662;DHT22;3367;48.714;8.994;2022-09-09T02:54:42;13.60;1.00
6662;DHT22;3367;48.714;8.994;2022-09-09T02:57:12;13.40;1.00
6662;DHT22;3367;48.714;8.994;2022-09-09T02:59:40;13.60;1.00
6662;DHT22;3367;48.714;8.994;2022-09-09T03:02:08;13.60;1.00
6662;DHT22;3367;48.714;8.994;2022-09-09T03:04:36;13.60;22.10
6662;DHT22;3367;48.714;8.994;2022-09-09T03:07:03;13.60;69.60
6662;DHT22;3367;48.714;8.994;2022-09-09T03:09:30;13.60;11.70
6662;DHT22;3367;48.714;8.994;2022-09-09T03:11:58;13.60;50.90
6662;DHT22;3367;48.714;8.994;2022-09-09T03:14:25;13.50;99.90
6662;DHT22;3367;48.714;8.994;2022-09-09T03:16:53;13.60;91.60
6662;DHT22;3367;48.714;8.994;2022-09-09T03:19:21;13.60;1.00
6662;DHT22;3367;48.714;8.994;2022-09-09T03:21:48;13.60;94.20
6662;DHT22;3367;48.714;8.994;2022-09-09T03:24:14;13.60;18.10
6662;DHT22;3367;48.714;8.994;2022-09-09T03:26:42;13.70;41.40
6662;DHT22;3367;48.714;8.994;2022-09-09T03:29:10;13.70;1.00
6662;DHT22;3367;48.714;8.994;2022-09-09T03:31:38;13.80;1.00
6662;DHT22;3367;48.714;8.994;2022-09-09T03:34:04;13.80;1.00
6662;DHT22;3367;48.714;8.994;2022-09-09T03:36:33;13.80;1.00
6662;DHT22;3367;48.714;8.994;2022-09-09T03:38:59;13.80;1.00
6662;DHT22;3367;48.714;8.994;2022-09-09T03:41:28;13.80;1.00
6662;DHT22;3367;48.714;8.994;2022-09-09T03:43:55;13.80;1.00
6662;DHT22;3367;48.714;8.994;2022-09-09T03:46:23;13.90;1.00
6662;DHT22;3367;48.714;8.994;2022-09-09T03:48:50;13.70;1.00
6662;DHT22;3367;48.714;8.994;2022-09-09T03:51:18;13.60;1.00
6662;DHT22;3367;48.714;8.994;2022-09-09T03:53:46;13.60;1.00
6662;DHT22;3367;48.714;8.994;2022-09-09T03:56:13;13.60;1.00
6662;DHT22;3367;48.714;8.994;2022-09-09T03:58:40;13.60;1.00
6662;DHT22;3367;48.714;8.994;2022-09-09T04:01:11;13.40;1.00
6662;DHT22;3367;48.714;8.994;2022-09-09T04:03:38;13.50;1.00
6662;DHT22;3367;48.714;8.994;2022-09-09T04:06:06;13.50;67.80
6662;DHT22;3367;48.714;8.994;2022-09-09T04:08:35;13.50;99.90
6662;DHT22;3367;48.714;8.994;2022-09-09T04:11:04;13.50;33.80
6662;DHT22;3367;48.714;8.994;2022-09-09T04:13:31;13.50;99.90
6662;DHT22;3367;48.714;8.994;2022-09-09T04:16:00;13.50;99.90
6662;DHT22;3367;48.714;8.994;2022-09-09T04:18:28;13.60;52.60
6662;DHT22;3367;48.714;8.994;2022-09-09T04:20:55;13.60;20.90
6662;DHT22;3367;48.714;8.994;2022-09-09T04:23:23;13.60;29.80
6662;DHT22;3367;48.714;8.994;2022-09-09T04:25:52;13.70;59.30
6662;DHT22;3367;48.714;8.994;2022-09-09T04:28:22;13.70;86.70
6662;DHT22;3367;48.714;8.994;2022-09-09T04:30:49;13.70;1.00
6662;DHT22;3367;48.714;8.994;2022-09-09T04:33:16;13.90;73.40
6662;DHT22;3367;48.714;8.994;2022-09-09T04:35:44;13.90;37.50
6662;DHT22;3367;48.714;8.994;2022-09-09T04:38:11;13.90;1.00
6662;DHT22;3367;48.714;8.994;2022-09-09T04:40:38;13.90;1.00
6662;DHT22;3367;48.714;8.994;2022-09-09T04:43:06;13.90;1.00
6662;DHT22;3367;48.714;8.994;2022-09-09T04:45:34;13.90;1.00
6662;DHT22;3367;48.714;8.994;2022-09-09T04:48:01;14.00;1.00
6662;DHT22;3367;48.714;8.994;2022-09-09T04:50:28;13.90;1.00
6662;DHT22;3367;48.714;8.994;2022-09-09T04:52:55;13.80;1.00
6662;DHT22;3367;48.714;8.994;2022-09-09T04:55:21;13.80;1.00
6662;DHT22;3367;48.714;8.994;2022-09-09T04:57:48;13.70;1.00
6662;DHT22;3367;48.714;8.994;2022-09-09T05:00:15;13.70;99.90
6662;DHT22;3367;48.714;8.994;2022-09-09T05:02:45;13.70;99.90
6662;DHT22;3367;48.714;8.994;2022-09-09T05:05:13;13.80;99.90
6662;DHT22;3367;48.714;8.994;2022-09-09T05:07:39;13.80;1.00
6662;DHT22;3367;48.714;8.994;2022-09-09T05:10:07;13.80;99.90
6662;DHT22;3367;48.714;8.994;2022-09-09T05:12:35;13.90;99.90
6662;DHT22;3367;48.714;8.994;2022-09-09T05:15:03;13.80;99.90
6662;DHT22;3367;48.714;8.994;2022-09-09T05:17:30;13.90;66.10
6662;DHT22;3367;48.714;8.994;2022-09-09T05:19:58;14.00;99.90
6662;DHT22;3367;48.714;8.994;2022-09-09T05:22:24;14.00;99.90
6662;DHT22;3367;48.714;8.994;2022-09-09T05:24:51;14.00;79.70
6662;DHT22;3367;48.714;8.994;2022-09-09T05:27:18;14.10;99.90
6662;DHT22;3367;48.714;8.994;2022-09-09T05:29:46;14.10;99.90
6662;DHT22;3367;48.714;8.994;2022-09-09T05:32:13;14.20;99.90
6662;DHT22;3367;48.714;8.994;2022-09-09T05:34:40;14.20;99.90
6662;DHT22;3367;48.714;8.994;2022-09-09T05:37:08;14.30;81.80
6662;DHT22;3367;48.714;8.994;2022-09-09T05:39:36;14.40;22.00
6662;DHT22;3367;48.714;8.994;2022-09-09T05:42:04;14.40;1.00
6662;DHT22;3367;48.714;8.994;2022-09-09T05:44:31;14.40;1.00
6662;DHT22;3367;48.714;8.994;2022-09-09T05:46:57;14.50;1.00
6662;DHT22;3367;48.714;8.994;2022-09-09T05:49:24;14.60;1.00
6662;DHT22;3367;48.714;8.994;2022-09-09T05:51:51;14.70;1.00
6662;DHT22;3367;48.714;8.994;2022-09-09T05:54:19;14.50;1.00
6662;DHT22;3367;48.714;8.994;2022-09-09T05:56:46;14.60;1.00
6662;DHT22;3367;48.714;8.994;2022-09-09T05:59:16;14.60;1.00
6662;DHT22;3367;48.714;8.994;2022-09-09T06:01:44;14.70;1.00
6662;DHT22;3367;48.714;8.994;2022-09-09T06:04:10;14.80;1.00
6662;DHT22;3367;48.714;8.994;2022-09-09T06:06:38;14.80;1.00
6662;DHT22;3367;48.714;8.994;2022-09-09T06:09:06;14.90;1.00
6662;DHT22;3367;48.714;8.994;2022-09-09T06:11:37;14.90;1.00
6662;DHT22;3367;48.714;8.994;2022-09-09T06:14:05;14.90;1.00
6662;DHT22;3367;48.714;8.994;2022-09-09T06:16:32;14.90;1.00
6662;DHT22;3367;48.714;8.994;2022-09-09T06:19:00;15.00;1.00
6662;DHT22;3367;48.714;8.994;2022-09-09T06:21:36;15.00;1.00
6662;DHT22;3367;48.714;8.994;2022-09-09T06:24:03;15.10;1.00
6662;DHT22;3367;48.714;8.994;2022-09-09T06:26:33;15.20;1.00
6662;DHT22;3367;48.714;8.994;2022-09-09T06:29:03;15.20;1.00
6662;DHT22;3367;48.714;8.994;2022-09-09T06:31:32;15.20;1.00
6662;DHT22;3367;48.714;8.994;2022-09-09T06:34:00;15.20;99.90
6662;DHT22;3367;48.714;8.994;2022-09-09T06:36:28;15.40;99.90
6662;DHT22;3367;48.714;8.994;2022-09-09T06:38:56;15.40;99.90
6662;DHT22;3367;48.714;8.994;2022-09-09T06:41:26;15.60;99.90
6662;DHT22;3367;48.714;8.994;2022-09-09T06:43:54;15.60;99.90
6662;DHT22;3367;48.714;8.994;2022-09-09T06:46:24;15.60;99.90
6662;DHT22;3367;48.714;8.994;2022-09-09T06:48:53;15.80;99.90
6662;DHT22;3367;48.714;8.994;2022-09-09T06:51:23;15.80;99.90
6662;DHT22;3367;48.714;8.994;2022-09-09T06:53:52;15.90;99.90
6662;DHT22;3367;48.714;8.994;2022-09-09T06:56:22;15.90;99.90
6662;DHT22;3367;48.714;8.994;2022-09-09T06:58:50;16.10;99.90
6662;DHT22;3367;48.714;8.994;2022-09-09T07:01:19;16.20;99.90
6662;DHT22;3367;48.714;8.994;2022-09-09T07:03:49;16.30;99.90
6662;DHT22;3367;48.714;8.994;2022-09-09T07:06:18;16.30;99.90
6662;DHT22;3367;48.714;8.994;2022-09-09T07:08:50;16.40;76.70
6662;DHT22;3367;48.714;8.994;2022-09-09T07:11:19;16.40;99.90
6662;DHT22;3367;48.714;8.994;2022-09-09T07:13:49;16.60;99.90
6662;DHT22;3367;48.714;8.994;2022-09-09T07:16:18;16.80;66.80
6662;DHT22;3367;48.714;8.994;2022-09-09T07:18:47;17.00;10.20
6662;DHT22;3367;48.714;8.994;2022-09-09T07:21:16;17.10;11.70
6662;DHT22;3367;48.714;8.994;2022-09-09T07:23:44;17.30;1.00
6662;DHT22;3367;48.714;8.994;2022-09-09T07:26:12;17.50;1.00
6662;DHT22;3367;48.714;8.994;2022-09-09T07:28:40;18.20;1.00
6662;DHT22;3367;48.714;8.994;2022-09-09T07:31:12;18.60;1.00
6662;DHT22;3367;48.714;8.994;2022-09-09T07:33:40;18.80;1.00
6662;DHT22;3367;48.714;8.994;2022-09-09T07:36:12;18.60;1.00
6662;DHT22;3367;48.714;8.994;2022-09-09T07:38:40;18.50;1.00
6662;DHT22;3367;48.714;8.994;2022-09-09T07:41:10;18.50;1.00
6662;DHT22;3367;48.714;8.994;2022-09-09T07:43:38;18.40;1.00
6662;DHT22;3367;48.714;8.994;2022-09-09T07:46:06;18.80;1.00
6662;DHT22;3367;48.714;8.994;2022-09-09T07:48:33;19.10;1.00
6662;DHT22;3367;48.714;8.994;2022-09-09T07:51:04;19.30;1.00
6662;DHT22;3367;48.714;8.994;2022-09-09T07:53:34;19.50;1.00
6662;DHT22;3367;48.714;8.994;2022-09-09T07:56:06;19.70;1.00
6662;DHT22;3367;48.714;8.994;2022-09-09T07:58:34;19.70;1.00
6662;DHT22;3367;48.714;8.994;2022-09-09T08:01:06;19.70;1.00
6662;DHT22;3367;48.714;8.994;2022-09-09T08:03:33;19.60;1.00
6662;DHT22;3367;48.714;8.994;2022-09-09T08:06:01;19.60;1.00
6662;DHT22;3367;48.714;8.994;2022-09-09T08:08:28;19.50;1.00
6662;DHT22;3367;48.714;8.994;2022-09-09T08:11:03;19.50;1.00
6662;DHT22;3367;48.714;8.994;2022-09-09T08:13:30;19.40;1.00
6662;DHT22;3367;48.714;8.994;2022-09-09T08:16:04;19.50;1.00
6662;DHT22;3367;48.714;8.994;2022-09-09T08:18:31;19.60;1.00
6662;DHT22;3367;48.714;8.994;2022-09-09T08:20:58;19.60;1.00
6662;DHT22;3367;48.714;8.994;2022-09-09T08:23:25;19.70;1.00
6662;DHT22;3367;48.714;8.994;2022-09-09T08:25:52;19.70;1.00
6662;DHT22;3367;48.714;8.994;2022-09-09T08:28:20;19.60;1.00
6662;DHT22;3367;48.714;8.994;2022-09-09T08:30:47;19.40;1.00
6662;DHT22;3367;48.714;8.994;2022-09-09T08:33:14;19.50;1.00
6662;DHT22;3367;48.714;8.994;2022-09-09T08:35:49;19.50;1.00
6662;DHT22;3367;48.714;8.994;2022-09-09T08:38:16;19.60;1.00
6662;DHT22;3367;48.714;8.994;2022-09-09T08:40:46;19.60;1.00
6662;DHT22;3367;48.714;8.994;2022-09-09T08:43:15;19.70;1.00
6662;DHT22;3367;48.714;8.994;2022-09-09T08:45:50;19.80;1.00
6662;DHT22;3367;48.714;8.994;2022-09-09T08:48:37;19.80;1.00
6662;DHT22;3367;48.714;8.994;2022-09-09T08:51:07;19.80;1.00
6662;DHT22;3367;48.714;8.994;2022-09-09T08:53:39;19.80;1.00
6662;DHT22;3367;48.714;8.994;2022-09-09T08:56:14;19.70;1.00
6662;DHT22;3367;48.714;8.994;2022-09-09T08:58:45;19.60;1.00
6662;DHT22;3367;48.714;8.994;2022-09-09T09:04:27;19.30;1.00
6662;DHT22;3367;48.714;8.994;2022-09-09T09:07:05;18.80;1.00
6662;DHT22;3367;48.714;8.994;2022-09-09T09:09:40;18.30;1.00
6662;DHT22;3367;48.714;8.994;2022-09-09T09:12:15;17.90;1.00
6662;DHT22;3367;48.714;8.994;2022-09-09T09:14:43;17.80;1.00
6662;DHT22;3367;48.714;8.994;2022-09-09T09:17:17;17.70;1.00
6662;DHT22;3367;48.714;8.994;2022-09-09T09:19:46;17.50;1.00
6662;DHT22;3367;48.714;8.994;2022-09-09T09:22:18;17.30;1.00
6662;DHT22;3367;48.714;8.994;2022-09-09T09:24:51;17.20;1.00
6662;DHT22;3367;48.714;8.994;2022-09-09T09:27:25;17.30;1.00
6662;DHT22;3367;48.714;8.994;2022-09-09T09:29:56;17.30;1.00
6662;DHT22;3367;48.714;8.994;2022-09-09T09:32:27;17.50;1.00
6662;DHT22;3367;48.714;8.994;2022-09-09T09:34:56;17.60;1.00
6662;DHT22;3367;48.714;8.994;2022-09-09T09:37:27;17.80;1.00
6662;DHT22;3367;48.714;8.994;2022-09-09T09:39:54;18.00;1.00
6662;DHT22;3367;48.714;8.994;2022-09-09T09:42:22;18.10;1.00
6662;DHT22;3367;48.714;8.994;2022-09-09T09:44:49;18.20;1.00
6662;DHT22;3367;48.714;8.994;2022-09-09T09:47:17;18.30;1.00
6662;DHT22;3367;48.714;8.994;2022-09-09T09:50:01;18.50;1.00
6662;DHT22;3367;48.714;8.994;2022-09-09T09:52:31;18.70;1.00
6662;DHT22;3367;48.714;8.994;2022-09-09T09:55:03;18.80;1.00
6662;DHT22;3367;48.714;8.994;2022-09-09T09:57:33;19.00;1.00
6662;DHT22;3367;48.714;8.994;2022-09-09T10:00:03;19.20;1.00
6662;DHT22;3367;48.714;8.994;2022-09-09T10:02:38;19.30;1.00
6662;DHT22;3367;48.714;8.994;2022-09-09T10:05:14;19.50;1.00
6662;DHT22;3367;48.714;8.994;2022-09-09T10:07:41;19.50;1.00
6662;DHT22;3367;48.714;8.994;2022-09-09T10:10:15;19.60;1.00
6662;DHT22;3367;48.714;8.994;2022-09-09T10:12:49;19.70;1.00
6662;DHT22;3367;48.714;8.994;2022-09-09T10:15:32;19.80;1.00
6662;DHT22;3367;48.714;8.994;2022-09-09T10:18:06;19.90;1.00
6662;DHT22;3367;48.714;8.994;2022-09-09T10:20:42;20.00;1.00
6662;DHT22;3367;48.714;8.994;2022-09-09T10:23:21;20.20;1.00
6662;DHT22;3367;48.714;8.994;2022-09-09T10:26:02;20.30;1.00
6662;DHT22;3367;48.714;8.994;2022-09-09T10:28:42;20.50;1.00
6662;DHT22;3367;48.714;8.994;2022-09-09T10:31:22;20.60;1.00
6662;DHT22;3367;48.714;8.994;2022-09-09T10:33:57;20.60;1.00
6662;DHT22;3367;48.714;8.994;2022-09-09T10:36:28;20.80;1.00
6662;DHT22;3367;48.714;8.994;2022-09-09T10:38:59;20.90;1.00
6662;DHT22;3367;48.714;8.994;2022-09-09T10:41:46;20.90;1.00
6662;DHT22;3367;48.714;8.994;2022-09-09T10:50:35;21.50;1.00
6662;DHT22;3367;48.714;8.994;2022-09-09T10:53:16;21.70;1.00
6662;DHT22;3367;48.714;8.994;2022-09-09T10:55:51;21.90;1.00
6662;DHT22;3367;48.714;8.994;2022-09-09T10:58:23;21.90;1.00
6662;DHT22;3367;48.714;8.994;2022-09-09T11:00:54;21.80;1.00
6662;DHT22;3367;48.714;8.994;2022-09-09T11:03:25;21.70;1.00
6662;DHT22;3367;48.714;8.994;2022-09-09T11:05:56;21.60;1.00
6662;DHT22;3367;48.714;8.994;2022-09-09T11:08:26;21.50;1.00
6662;DHT22;3367;48.714;8.994;2022-09-09T11:11:00;21.20;1.00
6662;DHT22;3367;48.714;8.994;2022-09-09T11:13:35;20.90;1.00
6662;DHT22;3367;48.714;8.994;2022-09-09T11:16:11;20.60;1.00
6662;DHT22;3367;48.714;8.994;2022-09-09T11:18:42;20.20;1.00
6662;DHT22;3367;48.714;8.994;2022-09-09T11:21:16;19.80;1.00
6662;DHT22;3367;48.714;8.994;2022-09-09T11:23:49;19.60;1.00
6662;DHT22;3367;48.714;8.994;2022-09-09T11:26:24;19.50;1.00
6662;DHT22;3367;48.714;8.994;2022-09-09T11:29:07;19.30;1.00
6662;DHT22;3367;48.714;8.994;2022-09-09T11:31:44;18.90;1.00
6662;DHT22;3367;48.714;8.994;2022-09-09T11:34:25;18.70;1.00
6662;DHT22;3367;48.714;8.994;2022-09-09T11:37:06;18.60;1.00
6662;DHT22;3367;48.714;8.994;2022-09-09T11:39:58;18.60;1.00
6662;DHT22;3367;48.714;8.994;2022-09-09T11:42:31;18.50;1.00
6662;DHT22;3367;48.714;8.994;2022-09-09T11:45:09;18.50;1.00
6662;DHT22;3367;48.714;8.994;2022-09-09T11:47:36;18.40;1.00
6662;DHT22;3367;48.714;8.994;2022-09-09T11:50:30;18.50;1.00
6662;DHT22;3367;48.714;8.994;2022-09-09T11:53:15;18.50;1.00
6662;DHT22;3367;48.714;8.994;2022-09-09T11:55:47;18.50;1.00
6662;DHT22;3367;48.714;8.994;2022-09-09T11:58:17;18.70;1.00
6662;DHT22;3367;48.714;8.994;2022-09-09T12:00:47;18.70;1.00
6662;DHT22;3367;48.714;8.994;2022-09-09T12:03:33;18.70;1.00
6662;DHT22;3367;48.714;8.994;2022-09-09T12:06:09;18.70;1.00
6662;DHT22;3367;48.714;8.994;2022-09-09T12:08:42;18.60;1.00
6662;DHT22;3367;48.714;8.994;2022-09-09T12:11:11;18.60;1.00
6662;DHT22;3367;48.714;8.994;2022-09-09T12:13:38;18.80;1.00
6662;DHT22;3367;48.714;8.994;2022-09-09T12:16:28;19.00;1.00
6662;DHT22;3367;48.714;8.994;2022-09-09T12:19:04;19.20;1.00
6662;DHT22;3367;48.714;8.994;2022-09-09T12:21:36;19.30;1.00
6662;DHT22;3367;48.714;8.994;2022-09-09T12:24:07;19.50;1.00
6662;DHT22;3367;48.714;8.994;2022-09-09T12:26:39;19.40;1.00
6662;DHT22;3367;48.714;8.994;2022-09-09T12:29:14;19.40;1.00
6662;DHT22;3367;48.714;8.994;2022-09-09T12:31:48;19.40;1.00
6662;DHT22;3367;48.714;8.994;2022-09-09T12:34:31;19.50;1.00
6662;DHT22;3367;48.714;8.994;2022-09-09T12:37:03;19.50;1.00
6662;DHT22;3367;48.714;8.994;2022-09-09T12:39:34;19.50;1.00
6662;DHT22;3367;48.714;8.994;2022-09-09T12:42:04;19.60;1.00
6662;DHT22;3367;48.714;8.994;2022-09-09T12:44:30;19.50;1.00
6662;DHT22;3367;48.714;8.994;2022-09-09T12:47:00;19.50;1.00
6662;DHT22;3367;48.714;8.994;2022-09-09T12:49:30;19.30;1.00
6662;DHT22;3367;48.714;8.994;2022-09-09T12:52:02;19.30;1.00
6662;DHT22;3367;48.714;8.994;2022-09-09T12:54:31;19.30;1.00
6662;DHT22;3367;48.714;8.994;2022-09-09T12:56:58;19.20;1.00
6662;DHT22;3367;48.714;8.994;2022-09-09T12:59:34;19.30;1.00
6662;DHT22;3367;48.714;8.994;2022-09-09T13:02:01;19.30;1.00
6662;DHT22;3367;48.714;8.994;2022-09-09T13:04:28;19.40;1.00
6662;DHT22;3367;48.714;8.994;2022-09-09T13:07:05;19.40;1.00
6662;DHT22;3367;48.714;8.994;2022-09-09T13:09:35;19.60;1.00
6662;DHT22;3367;48.714;8.994;2022-09-09T13:12:04;19.60;1.00
6662;DHT22;3367;48.714;8.994;2022-09-09T13:14:36;19.80;1.00
6662;DHT22;3367;48.714;8.994;2022-09-09T13:17:05;20.00;1.00
6662;DHT22;3367;48.714;8.994;2022-09-09T13:19:36;20.10;1.00
6662;DHT22;3367;48.714;8.994;2022-09-09T13:22:12;20.20;1.00
6662;DHT22;3367;48.714;8.994;2022-09-09T13:24:39;20.20;1.00
6662;DHT22;3367;48.714;8.994;2022-09-09T13:27:26;20.20;1.00
6662;DHT22;3367;48.714;8.994;2022-09-09T13:29:55;20.20;1.00
6662;DHT22;3367;48.714;8.994;2022-09-09T13:32:23;20.20;1.00
6662;DHT22;3367;48.714;8.994;2022-09-09T13:34:52;20.10;1.00
6662;DHT22;3367;48.714;8.994;2022-09-09T13:37:23;20.10;1.00
6662;DHT22;3367;48.714;8.994;2022-09-09T13:39:53;20.20;1.00
6662;DHT22;3367;48.714;8.994;2022-09-09T13:42:26;20.30;1.00
6662;DHT22;3367;48.714;8.994;2022-09-09T13:44:55;20.40;1.00
6662;DHT22;3367;48.714;8.994;2022-09-09T13:47:29;20.60;1.00
6662;DHT22;3367;48.714;8.994;2022-09-09T13:49:56;20.60;1.00
6662;DHT22;3367;48.714;8.994;2022-09-09T13:52:23;20.80;1.00
6662;DHT22;3367;48.714;8.994;2022-09-09T13:54:52;20.90;1.00
6662;DHT22;3367;48.714;8.994;2022-09-09T13:57:21;20.90;1.00
6662;DHT22;3367;48.714;8.994;2022-09-09T13:59:49;21.00;1.00
6662;DHT22;3367;48.714;8.994;2022-09-09T14:02:17;20.90;1.00
6662;DHT22;3367;48.714;8.994;2022-09-09T14:04:44;21.00;1.00
6662;DHT22;3367;48.714;8.994;2022-09-09T14:07:13;20.90;1.00
6662;DHT22;3367;48.714;8.994;2022-09-09T14:09:40;21.00;1.00
6662;DHT22;3367;48.714;8.994;2022-09-09T14:12:09;21.00;1.00
6662;DHT22;3367;48.714;8.994;2022-09-09T14:14:36;20.90;1.00
6662;DHT22;3367;48.714;8.994;2022-09-09T14:17:02;20.80;1.00
6662;DHT22;3367;48.714;8.994;2022-09-09T14:19:31;20.90;1.00
6662;DHT22;3367;48.714;8.994;2022-09-09T14:21:58;20.90;1.00
6662;DHT22;3367;48.714;8.994;2022-09-09T14:24:25;21.00;1.00
6662;DHT22;3367;48.714;8.994;2022-09-09T14:26:51;21.00;1.00
6662;DHT22;3367;48.714;8.994;2022-09-09T14:29:18;21.10;1.00
6662;DHT22;3367;48.714;8.994;2022-09-09T14:31:45;21.00;1.00
6662;DHT22;3367;48.714;8.994;2022-09-09T14:34:12;20.80;1.00
6662;DHT22;3367;48.714;8.994;2022-09-09T14:36:41;20.90;1.00
6662;DHT22;3367;48.714;8.994;2022-09-09T14:39:07;20.90;1.00
6662;DHT22;3367;48.714;8.994;2022-09-09T14:41:34;20.90;1.00
6662;DHT22;3367;48.714;8.994;2022-09-09T14:44:01;21.00;1.00
6662;DHT22;3367;48.714;8.994;2022-09-09T14:46:28;21.00;1.00
6662;DHT22;3367;48.714;8.994;2022-09-09T14:48:55;21.00;1.00
6662;DHT22;3367;48.714;8.994;2022-09-09T14:51:23;20.90;1.00
6662;DHT22;3367;48.714;8.994;2022-09-09T14:53:54;20.90;1.00
6662;DHT22;3367;48.714;8.994;2022-09-09T14:56:22;20.90;1.00
6662;DHT22;3367;48.714;8.994;2022-09-09T14:58:49;20.90;1.00
6662;DHT22;3367;48.714;8.994;2022-09-09T15:01:17;20.90;1.00
6662;DHT22;3367;48.714;8.994;2022-09-09T15:03:49;20.80;1.00
6662;DHT22;3367;48.714;8.994;2022-09-09T15:06:16;20.70;1.00
6662;DHT22;3367;48.714;8.994;2022-09-09T15:08:44;20.70;1.00
6662;DHT22;3367;48.714;8.994;2022-09-09T15:11:13;20.70;1.00
6662;DHT22;3367;48.714;8.994;2022-09-09T15:13:42;20.80;1.00
6662;DHT22;3367;48.714;8.994;2022-09-09T15:16:11;20.90;1.00
6662;DHT22;3367;48.714;8.994;2022-09-09T15:18:38;21.00;1.00
6662;DHT22;3367;48.714;8.994;2022-09-09T15:21:09;21.10;1.00
6662;DHT22;3367;48.714;8.994;2022-09-09T15:23:36;21.20;1.00
6662;DHT22;3367;48.714;8.994;2022-09-09T15:26:03;21.40;1.00
6662;DHT22;3367;48.714;8.994;2022-09-09T15:28:33;21.40;1.00
6662;DHT22;3367;48.714;8.994;2022-09-09T15:31:05;21.40;1.00
6662;DHT22;3367;48.714;8.994;2022-09-09T15:33:33;21.40;1.00
6662;DHT22;3367;48.714;8.994;2022-09-09T15:36:00;21.20;1.00
6662;DHT22;3367;48.714;8.994;2022-09-09T15:38:27;21.00;1.00
6662;DHT22;3367;48.714;8.994;2022-09-09T15:40:57;20.80;1.00
6662;DHT22;3367;48.714;8.994;2022-09-09T15:43:24;20.70;1.00
6662;DHT22;3367;48.714;8.994;2022-09-09T15:45:54;20.60;1.00
6662;DHT22;3367;48.714;8.994;2022-09-09T15:48:30;20.50;1.00
6662;DHT22;3367;48.714;8.994;2022-09-09T15:51:02;20.40;1.00
6662;DHT22;3367;48.714;8.994;2022-09-09T15:53:29;20.40;1.00
6662;DHT22;3367;48.714;8.994;2022-09-09T15:55:57;20.30;1.00
6662;DHT22;3367;48.714;8.994;2022-09-09T15:58:24;20.20;1.00
6662;DHT22;3367;48.714;8.994;2022-09-09T16:00:52;20.10;1.00
6662;DHT22;3367;48.714;8.994;2022-09-09T16:03:19;20.00;1.00
6662;DHT22;3367;48.714;8.994;2022-09-09T16:05:51;20.00;1.00
6662;DHT22;3367;48.714;8.994;2022-09-09T16:08:17;20.00;1.00
6662;DHT22;3367;48.714;8.994;2022-09-09T16:10:45;19.90;1.00
6662;DHT22;3367;48.714;8.994;2022-09-09T16:13:12;19.80;1.00
6662;DHT22;3367;48.714;8.994;2022-09-09T16:15:39;19.70;1.00
6662;DHT22;3367;48.714;8.994;2022-09-09T16:18:07;19.70;1.00
6662;DHT22;3367;48.714;8.994;2022-09-09T16:20:34;19.50;1.00
6662;DHT22;3367;48.714;8.994;2022-09-09T16:23:01;19.60;1.00
6662;DHT22;3367;48.714;8.994;2022-09-09T16:25:27;19.50;1.00
6662;DHT22;3367;48.714;8.994;2022-09-09T16:27:54;19.40;1.00
6662;DHT22;3367;48.714;8.994;2022-09-09T16:30:21;19.20;1.00
6662;DHT22;3367;48.714;8.994;2022-09-09T16:32:47;19.00;1.00
6662;DHT22;3367;48.714;8.994;2022-09-09T16:35:16;18.80;1.00
6662;DHT22;3367;48.714;8.994;2022-09-09T16:37:44;18.70;1.00
6662;DHT22;3367;48.714;8.994;2022-09-09T16:40:11;18.70;1.00
6662;DHT22;3367;48.714;8.994;2022-09-09T16:42:38;18.60;1.00
6662;DHT22;3367;48.714;8.994;2022-09-09T16:45:05;18.70;1.00